Time;durP1;ratioP1;P1;durP2;ratioP2;P2;SDS_P1;SDS_P2;PMS_P1;PMS_P2;Temp;Humidity;BMP_temperature;BMP_pressure;BME280_temperature;BME280_humidity;BME280_pressure;Samples;Min_cycle;Max_cycle;Signal;HPM_P1;HPM_P2
2023/01/26 00:00:48;;;;;;;77.20;21.88;;;1.30;99.90;;;;;;4735144;30;20497;-74
2023/01/26 00:03:16;;;;;;;78.18;22.17;;;1.10;99.90;;;;;;4734922;30;20088;-74
2023/01/26 00:05:42;;;;;;;89.63;23.92;;;1.30;99.90;;;;;;4734844;30;20103;-74
2023/01/26 00:08:08;;;;;;;78.47;23.85;;;1.30;99.90;;;;;;4735142;30;20064;-74
2023/01/26 00:10:39;;;;;;;80.28;22.45;;;1.30;99.90;;;;;;4734559;30;20056;-74
2023/01/26 00:13:05;;;;;;;75.47;21.23;;;1.20;99.90;;;;;;4734945;30;20180;-74
2023/01/26 00:15:32;;;;;;;81.63;22.60;;;1.20;99.90;;;;;;4734701;30;20056;-74
2023/01/26 00:17:59;;;;;;;88.18;22.80;;;1.30;99.90;;;;;;4734653;30;20052;-74
2023/01/26 00:20:37;;;;;;;97.28;26.00;;;1.20;99.90;;;;;;4734719;30;20401;-74
2023/01/26 00:23:02;;;;;;;91.80;23.20;;;1.30;99.90;;;;;;4734703;30;20080;-74
2023/01/26 00:25:28;;;;;;;98.47;25.35;;;1.20;99.90;;;;;;4735707;30;20091;-74
2023/01/26 00:27:55;;;;;;;85.38;24.35;;;1.30;99.90;;;;;;4735461;30;20063;-74
2023/01/26 00:30:20;;;;;;;79.20;21.85;;;1.20;99.90;;;;;;4719985;30;20119;-74
2023/01/26 00:32:52;;;;;;;87.10;23.55;;;1.20;99.90;;;;;;4720236;30;20064;-74
2023/01/26 00:35:18;;;;;;;92.45;24.10;;;1.20;99.90;;;;;;4719743;30;20551;-74
2023/01/26 00:37:44;;;;;;;79.65;22.35;;;1.40;99.90;;;;;;4719747;30;20064;-74
2023/01/26 00:40:10;;;;;;;84.97;22.23;;;1.30;99.90;;;;;;4719763;30;20072;-74
2023/01/26 00:42:36;;;;;;;83.85;23.45;;;1.40;99.90;;;;;;4719810;30;20118;-74
2023/01/26 00:45:01;;;;;;;80.50;22.02;;;1.30;99.90;;;;;;4719817;30;20398;-74
2023/01/26 00:47:33;;;;;;;81.30;22.15;;;1.30;99.90;;;;;;4719286;30;20091;-74
2023/01/26 00:49:59;;;;;;;91.32;24.50;;;1.30;99.90;;;;;;4719672;30;20466;-74
2023/01/26 00:52:27;;;;;;;94.28;24.20;;;1.40;99.90;;;;;;4719589;30;20060;-74
2023/01/26 00:54:53;;;;;;;84.38;24.10;;;1.30;99.90;;;;;;4719803;30;20044;-74
2023/01/26 00:57:18;;;;;;;82.70;22.45;;;1.30;99.90;;;;;;4719612;30;20059;-74
2023/01/26 00:59:44;;;;;;;95.95;26.38;;;1.50;99.90;;;;;;4719646;30;20052;-74
2023/01/26 01:02:09;;;;;;;86.53;24.58;;;1.40;99.90;;;;;;4719915;30;20056;-74
2023/01/26 01:04:35;;;;;;;95.10;22.35;;;1.50;99.90;;;;;;4719428;30;20537;-74
2023/01/26 01:07:01;;;;;;;92.90;24.60;;;1.30;99.90;;;;;;4719389;30;20055;-74
2023/01/26 01:09:29;;;;;;;95.05;26.05;;;1.50;99.90;;;;;;4718542;30;20188;-74
2023/01/26 01:11:54;;;;;;;97.32;25.50;;;1.30;99.90;;;;;;4719438;30;20554;-74
2023/01/26 01:14:20;;;;;;;92.95;23.92;;;1.30;99.90;;;;;;4719779;30;20056;-74
2023/01/26 01:16:46;;;;;;;87.45;23.38;;;1.40;99.90;;;;;;4719577;30;20052;-74
2023/01/26 01:19:16;;;;;;;99.10;23.83;;;1.30;99.90;;;;;;4719464;30;20383;-74
2023/01/26 01:21:43;;;;;;;100.85;24.52;;;1.50;99.90;;;;;;4735010;30;20045;-74
2023/01/26 01:24:09;;;;;;;106.60;26.02;;;1.50;99.90;;;;;;4719331;30;20150;-74
2023/01/26 01:26:35;;;;;;;91.85;25.42;;;1.40;99.90;;;;;;4734951;30;20490;-74
2023/01/26 01:29:00;;;;;;;99.13;24.30;;;1.40;99.90;;;;;;4719327;30;20167;-74
2023/01/26 01:31:28;;;;;;;92.57;25.02;;;1.40;99.90;;;;;;4719470;30;20553;-74
2023/01/26 01:33:57;;;;;;;95.43;25.83;;;1.50;99.90;;;;;;4719147;30;20387;-74
2023/01/26 01:36:23;;;;;;;97.40;25.80;;;1.40;99.90;;;;;;4734933;30;20115;-74
2023/01/26 01:38:48;;;;;;;95.85;24.70;;;1.60;99.90;;;;;;4719250;30;20505;-74
2023/01/26 01:41:16;;;;;;;112.00;25.90;;;1.50;99.90;;;;;;4719256;30;20056;-74
2023/01/26 01:43:45;;;;;;;103.30;27.33;;;1.60;99.90;;;;;;4719507;30;20057;-74
2023/01/26 01:46:16;;;;;;;99.30;25.55;;;1.70;99.90;;;;;;4734987;30;20045;-74
2023/01/26 01:48:50;;;;;;;99.55;23.90;;;1.50;99.90;;;;;;4719072;30;20065;-74
2023/01/26 01:51:38;;;;;;;100.45;26.98;;;1.70;99.90;;;;;;4719038;30;20057;-74
2023/01/26 01:54:09;;;;;;;97.65;25.17;;;1.60;99.90;;;;;;4718904;30;20446;-74
2023/01/26 01:56:38;;;;;;;90.95;24.25;;;1.60;99.90;;;;;;4719244;30;20060;-74
2023/01/26 01:59:06;;;;;;;103.95;25.67;;;1.80;99.90;;;;;;4719236;30;20063;-74
2023/01/26 02:01:32;;;;;;;118.05;25.33;;;1.80;99.90;;;;;;4719059;30;20045;-74
2023/01/26 02:04:01;;;;;;;99.22;24.25;;;1.70;99.90;;;;;;4719090;30;20110;-74
2023/01/26 02:06:33;;;;;;;101.10;25.50;;;1.70;99.90;;;;;;4719070;30;20048;-74
2023/01/26 02:09:00;;;;;;;94.10;24.65;;;1.90;99.90;;;;;;4719100;30;20449;-74
2023/01/26 02:11:38;;;;;;;94.07;23.17;;;1.90;99.90;;;;;;4718868;30;20057;-74
2023/01/26 02:14:07;;;;;;;92.82;24.23;;;1.90;99.90;;;;;;4719001;30;20049;-74
2023/01/26 02:16:32;;;;;;;108.53;26.08;;;1.90;99.90;;;;;;4718961;30;20080;-74
2023/01/26 02:18:58;;;;;;;95.57;24.88;;;2.00;99.90;;;;;;4718867;30;20076;-74
2023/01/26 02:21:24;;;;;;;89.32;24.55;;;1.80;99.90;;;;;;4721005;30;20056;-74
2023/01/26 02:24:24;;;;;;;105.75;25.33;;;2.00;99.90;;;;;;4722328;30;20045;-74
2023/01/26 02:26:53;;;;;;;95.97;25.08;;;1.90;99.90;;;;;;4712644;30;20064;-74
2023/01/26 02:29:19;;;;;;;104.68;25.58;;;2.10;99.90;;;;;;4721958;30;20080;-74
2023/01/26 02:31:45;;;;;;;101.20;25.10;;;1.90;99.90;;;;;;4721872;30;20053;-74
2023/01/26 02:34:11;;;;;;;115.38;26.25;;;2.10;99.90;;;;;;4737621;30;20052;-74
2023/01/26 02:36:37;;;;;;;95.60;24.95;;;1.90;99.90;;;;;;4737593;30;20123;-74
2023/01/26 02:39:22;;;;;;;91.95;24.83;;;2.00;99.90;;;;;;4721947;30;20051;-74
2023/01/26 02:44:35;;;;;;;83.82;23.02;;;2.00;99.90;;;;;;4721718;30;20068;-74
2023/01/26 02:47:10;;;;;;;95.78;24.20;;;2.00;99.90;;;;;;4721500;30;20060;-74
2023/01/26 02:49:49;;;;;;;100.07;25.02;;;2.00;99.90;;;;;;4721534;30;20064;-74
2023/01/26 02:52:17;;;;;;;89.03;23.67;;;2.00;99.90;;;;;;4721585;30;20072;-74
2023/01/26 02:57:28;;;;;;;87.18;25.58;;;2.20;99.90;;;;;;4737291;30;20075;-74
2023/01/26 02:59:54;;;;;;;94.05;26.05;;;2.30;99.90;;;;;;4737244;30;20478;-74
2023/01/26 03:02:23;;;;;;;102.63;24.77;;;2.30;99.90;;;;;;4721464;30;20119;-74
2023/01/26 03:04:48;;;;;;;91.18;23.65;;;2.20;99.90;;;;;;4721618;30;20060;-74
2023/01/26 03:07:14;;;;;;;102.18;26.02;;;2.30;99.90;;;;;;4721386;30;20543;-74
2023/01/26 03:09:39;;;;;;;92.28;25.05;;;2.20;99.90;;;;;;4721182;30;20052;-74
2023/01/26 03:12:05;;;;;;;95.20;24.90;;;2.40;99.90;;;;;;4721423;30;20114;-74
2023/01/26 03:14:31;;;;;;;95.03;26.50;;;2.40;99.90;;;;;;4721143;30;20461;-74
2023/01/26 03:16:56;;;;;;;85.78;24.65;;;2.30;99.90;;;;;;4721453;30;20044;-74
2023/01/26 03:27:44;;;;;;;27.45;4.00;;;2.80;99.90;;;;;;4720675;30;20068;-74
2023/01/26 03:30:11;;;;;;;31.52;4.82;;;3.30;99.90;;;;;;4721123;30;20064;-74
2023/01/26 03:32:37;;;;;;;38.58;5.20;;;3.50;99.90;;;;;;4720162;30;20057;-74
2023/01/26 03:35:08;;;;;;;30.27;4.30;;;3.80;99.90;;;;;;4720727;30;20044;-74
2023/01/26 03:37:35;;;;;;;31.50;4.03;;;4.00;99.90;;;;;;4736615;30;20052;-74
2023/01/26 03:56:31;;;;;;;46.25;4.47;;;4.90;99.90;;;;;;4720495;30;20064;-74
2023/01/26 03:59:09;;;;;;;39.60;5.90;;;4.90;99.90;;;;;;4720692;30;20065;-74
2023/01/26 04:01:38;;;;;;;35.22;4.47;;;4.90;99.90;;;;;;4720728;30;20052;-74
2023/01/26 04:09:38;;;;;;;39.35;5.03;;;4.90;99.90;;;;;;4720231;30;20060;-74
2023/01/26 04:12:04;;;;;;;37.55;5.40;;;5.10;99.90;;;;;;4720217;30;20432;-74
2023/01/26 04:22:48;;;;;;;37.30;4.90;;;5.20;99.90;;;;;;4720158;30;20053;-75
2023/01/26 04:25:20;;;;;;;38.67;4.57;;;5.20;99.90;;;;;;4720013;30;20484;-74
2023/01/26 04:27:49;;;;;;;39.05;5.20;;;5.20;99.90;;;;;;4735438;30;20589;-74
2023/01/26 04:30:15;;;;;;;29.85;3.83;;;5.30;99.90;;;;;;4719884;30;20131;-74
2023/01/26 04:32:41;;;;;;;41.45;4.28;;;5.30;99.90;;;;;;4719978;30;20055;-74
2023/01/26 04:35:08;;;;;;;42.17;7.57;;;5.40;99.90;;;;;;4720000;30;20053;-74
2023/01/26 04:37:35;;;;;;;38.58;4.20;;;5.30;99.90;;;;;;4720065;30;20094;-74
2023/01/26 04:40:03;;;;;;;46.60;5.50;;;5.30;99.90;;;;;;4719777;30;20095;-74
2023/01/26 04:42:28;;;;;;;34.33;5.75;;;5.30;99.90;;;;;;4720068;30;20136;-74
2023/01/26 04:44:54;;;;;;;47.10;6.53;;;5.30;99.90;;;;;;4719701;30;20476;-75
2023/01/26 04:47:23;;;;;;;36.05;4.20;;;5.20;99.90;;;;;;4719784;30;20508;-74
2023/01/26 04:49:49;;;;;;;30.58;7.80;;;5.20;99.90;;;;;;4719463;30;20513;-74
2023/01/26 04:52:14;;;;;;;41.70;5.78;;;5.20;99.90;;;;;;4735305;30;20056;-75
2023/01/26 04:54:40;;;;;;;30.83;3.90;;;5.10;99.90;;;;;;4719669;30;20059;-74
2023/01/26 04:57:06;;;;;;;32.10;4.88;;;5.20;99.90;;;;;;4719903;30;20049;-74
2023/01/26 04:59:32;;;;;;;33.75;4.38;;;5.30;99.90;;;;;;4719935;30;20053;-74
2023/01/26 05:01:57;;;;;;;51.00;7.35;;;5.10;99.90;;;;;;4735366;30;20510;-74
2023/01/26 05:04:23;;;;;;;26.20;4.93;;;5.00;99.90;;;;;;4719664;30;20083;-74
2023/01/26 05:06:49;;;;;;;31.90;4.78;;;5.20;99.90;;;;;;4719424;30;20116;-74
2023/01/26 05:09:14;;;;;;;35.22;4.78;;;5.10;99.90;;;;;;4719395;30;20489;-74
2023/01/26 05:11:43;;;;;;;33.22;5.25;;;5.10;99.90;;;;;;4719417;30;20103;-74
2023/01/26 05:14:08;;;;;;;37.08;4.75;;;5.10;99.90;;;;;;4719536;30;20056;-74
2023/01/26 05:16:34;;;;;;;28.90;4.50;;;5.10;99.90;;;;;;4719550;30;20056;-74
2023/01/26 05:19:03;;;;;;;32.65;4.70;;;5.10;99.90;;;;;;4719286;30;20379;-74
2023/01/26 05:21:28;;;;;;;39.75;5.28;;;5.10;99.90;;;;;;4719341;30;20448;-75
2023/01/26 05:23:54;;;;;;;41.75;6.15;;;5.10;99.90;;;;;;4719339;30;20482;-74
2023/01/26 05:26:20;;;;;;;51.30;6.78;;;5.20;99.90;;;;;;4719455;30;20057;-74
2023/01/26 05:28:45;;;;;;;23.77;3.53;;;5.20;99.90;;;;;;4719286;30;20064;-74
2023/01/26 05:31:11;;;;;;;21.15;3.67;;;5.20;99.90;;;;;;4735049;30;20541;-74
2023/01/26 05:33:36;;;;;;;25.52;3.78;;;5.20;99.90;;;;;;4719298;30;20375;-74
2023/01/26 05:36:06;;;;;;;41.83;4.15;;;5.00;99.90;;;;;;4719529;30;20098;-74
2023/01/26 05:38:32;;;;;;;33.53;4.00;;;5.10;99.90;;;;;;4719475;30;20551;-74
2023/01/26 05:40:58;;;;;;;41.22;6.82;;;5.10;99.90;;;;;;4735085;30;20056;-74
2023/01/26 05:43:24;;;;;;;26.17;3.75;;;5.00;99.90;;;;;;4734834;30;20052;-74
2023/01/26 05:45:50;;;;;;;32.85;4.30;;;5.10;99.90;;;;;;4719554;30;20099;-74
2023/01/26 05:48:18;;;;;;;27.90;4.20;;;5.10;99.90;;;;;;4719094;30;20123;-74
2023/01/26 05:50:44;;;;;;;31.83;3.75;;;5.00;99.90;;;;;;4719219;30;20196;-74
2023/01/26 05:53:10;;;;;;;50.13;8.57;;;5.00;99.90;;;;;;4719405;30;20056;-74
2023/01/26 05:55:35;;;;;;;39.72;6.63;;;4.90;99.90;;;;;;4735798;30;20055;-74
2023/01/26 05:58:01;;;;;;;37.53;4.18;;;4.90;99.90;;;;;;4722550;30;20045;-74
2023/01/26 06:00:26;;;;;;;34.03;4.47;;;4.90;99.90;;;;;;4722708;30;20056;-74
2023/01/26 06:02:52;;;;;;;27.48;3.88;;;4.90;99.90;;;;;;4722302;30;20045;-74
2023/01/26 06:05:18;;;;;;;31.70;5.35;;;4.90;99.90;;;;;;4722327;30;20056;-74
2023/01/26 06:07:44;;;;;;;34.10;4.22;;;4.90;99.90;;;;;;4722253;30;20044;-74
2023/01/26 06:10:12;;;;;;;23.13;3.97;;;4.80;99.90;;;;;;4722406;30;20052;-74
2023/01/26 06:12:38;;;;;;;29.90;4.18;;;4.90;99.90;;;;;;4722113;30;20569;-74
2023/01/26 06:15:11;;;;;;;41.75;5.15;;;4.90;99.90;;;;;;4737956;30;20040;-74
2023/01/26 06:17:37;;;;;;;;;;;4.90;99.90;;;;;;4722778;30;20057;-74
2023/01/26 06:20:02;;;;;;;31.80;4.32;;;4.90;99.90;;;;;;4722222;30;20311;-74
2023/01/26 06:22:28;;;;;;;34.45;5.22;;;4.80;99.90;;;;;;4722271;30;20052;-74
2023/01/26 06:24:54;;;;;;;31.83;5.45;;;4.90;99.90;;;;;;4722336;30;20061;-74
2023/01/26 06:27:19;;;;;;;47.65;5.60;;;4.80;99.90;;;;;;4721932;30;20057;-74
2023/01/26 06:29:45;;;;;;;31.65;4.07;;;4.90;99.90;;;;;;4737412;30;20057;-74
2023/01/26 06:32:12;;;;;;;23.20;3.40;;;4.90;99.90;;;;;;4721763;30;20118;-74
2023/01/26 06:34:38;;;;;;;41.17;4.35;;;4.90;99.90;;;;;;4721854;30;20114;-74
2023/01/26 06:37:03;;;;;;;38.55;5.18;;;4.90;99.90;;;;;;4721708;30;20125;-74
2023/01/26 06:39:29;;;;;;;29.23;4.40;;;4.90;99.90;;;;;;4737632;30;20140;-74
2023/01/26 06:41:55;;;;;;;34.30;5.03;;;5.00;99.90;;;;;;4737324;30;20137;-74
2023/01/26 06:44:20;;;;;;;40.83;5.28;;;4.90;99.90;;;;;;4721826;30;20068;-74
2023/01/26 06:46:46;;;;;;;20.10;3.95;;;4.90;99.90;;;;;;4721889;30;20084;-74
2023/01/26 06:49:12;;;;;;;33.97;4.45;;;4.80;99.90;;;;;;4721563;30;20052;-75
2023/01/26 06:51:43;;;;;;;28.88;4.00;;;4.90;99.90;;;;;;4737353;30;20091;-74
2023/01/26 06:54:10;;;;;;;52.20;5.40;;;4.90;99.90;;;;;;4721360;30;20052;-74
2023/01/26 06:56:36;;;;;;;35.67;4.10;;;4.80;99.90;;;;;;4721724;30;20136;-74
2023/01/26 06:59:02;;;;;;;23.40;3.97;;;4.80;99.90;;;;;;4721382;30;20468;-74
2023/01/26 07:01:31;;;;;;;25.02;3.67;;;4.80;99.90;;;;;;4721296;30;20065;-74
2023/01/26 07:03:57;;;;;;;35.83;3.38;;;4.80;99.90;;;;;;4721385;30;20057;-74
2023/01/26 07:06:22;;;;;;;34.95;4.15;;;4.90;99.90;;;;;;4720859;30;20107;-74
2023/01/26 07:08:48;;;;;;;28.88;3.47;;;4.80;99.90;;;;;;4720947;30;20060;-74
2023/01/26 07:11:15;;;;;;;24.48;3.55;;;4.80;99.90;;;;;;4721337;30;20056;-74
2023/01/26 07:13:40;;;;;;;34.05;4.18;;;4.80;99.90;;;;;;4721561;30;20114;-74
2023/01/26 07:16:11;;;;;;;23.92;3.35;;;4.80;99.90;;;;;;4721379;30;20056;-74
2023/01/26 07:18:37;;;;;;;28.95;3.90;;;4.70;99.90;;;;;;4721089;30;20053;-74
2023/01/26 07:21:05;;;;;;;37.97;4.38;;;4.80;99.90;;;;;;4721105;30;20049;-74
2023/01/26 07:23:31;;;;;;;40.15;4.40;;;4.80;99.90;;;;;;4719929;30;20048;-74
2023/01/26 07:25:58;;;;;;;38.30;4.25;;;4.80;99.90;;;;;;4720654;30;20056;-75
2023/01/26 07:28:24;;;;;;;38.80;5.05;;;4.70;99.90;;;;;;4736391;30;20065;-74
2023/01/26 07:30:51;;;;;;;33.65;3.85;;;4.80;99.90;;;;;;4720812;30;20056;-75
2023/01/26 07:33:23;;;;;;;34.78;5.60;;;4.70;99.90;;;;;;4720738;30;20048;-74
2023/01/26 07:35:52;;;;;;;34.90;5.13;;;4.70;99.90;;;;;;4720714;30;20071;-74
2023/01/26 07:38:18;;;;;;;35.75;4.40;;;4.70;99.90;;;;;;4720697;30;20084;-74
2023/01/26 07:40:44;;;;;;;22.67;3.65;;;4.70;99.90;;;;;;4736403;30;20494;-75
2023/01/26 07:43:09;;;;;;;40.45;4.57;;;4.70;99.90;;;;;;4720617;30;20151;-74
2023/01/26 07:45:35;;;;;;;36.00;5.13;;;4.70;99.90;;;;;;4720805;30;20052;-75
2023/01/26 07:48:01;;;;;;;32.97;3.10;;;4.70;99.90;;;;;;4720805;30;20053;-74
2023/01/26 07:50:31;;;;;;;29.17;5.60;;;4.70;99.90;;;;;;4720589;30;20052;-74
2023/01/26 07:52:59;;;;;;;28.67;4.85;;;4.70;99.90;;;;;;4720301;30;20052;-74
2023/01/26 07:55:25;;;;;;;34.38;3.67;;;4.70;99.90;;;;;;4720586;30;20045;-74
2023/01/26 07:57:51;;;;;;;25.17;3.75;;;4.60;99.90;;;;;;4736021;30;20125;-74
2023/01/26 08:00:18;;;;;;;30.08;3.22;;;4.70;99.90;;;;;;4720181;30;20053;-74
2023/01/26 08:02:48;;;;;;;30.67;4.25;;;4.70;99.90;;;;;;4720277;30;20407;-74
2023/01/26 08:05:16;;;;;;;25.38;4.50;;;4.60;99.90;;;;;;4720433;30;20048;-74
2023/01/26 08:07:42;;;;;;;22.98;4.15;;;4.60;99.90;;;;;;4720253;30;20095;-74
2023/01/26 08:10:09;;;;;;;24.55;3.55;;;4.70;99.90;;;;;;4736014;30;20084;-75
2023/01/26 08:12:41;;;;;;;28.55;3.60;;;4.60;99.90;;;;;;4720430;30;20102;-74
2023/01/26 08:15:07;;;;;;;36.05;6.00;;;4.60;99.90;;;;;;4720294;30;20055;-75
2023/01/26 08:17:33;;;;;;;39.55;4.30;;;4.70;99.90;;;;;;4720428;30;20118;-75
2023/01/26 08:19:59;;;;;;;36.50;6.13;;;4.70;99.90;;;;;;4719581;30;20044;-75
2023/01/26 08:22:27;;;;;;;34.72;4.65;;;4.60;99.90;;;;;;4717889;30;20080;-74
2023/01/26 08:24:53;;;;;;;31.60;6.93;;;4.60;99.90;;;;;;4710938;30;20107;-74
2023/01/26 08:27:18;;;;;;;37.17;5.30;;;4.70;99.90;;;;;;4711649;30;20132;-74
2023/01/26 08:29:44;;;;;;;25.75;3.67;;;4.70;99.90;;;;;;4734073;30;20052;-74
2023/01/26 08:32:09;;;;;;;36.42;4.07;;;4.70;99.90;;;;;;4735683;30;20055;-74
2023/01/26 08:34:35;;;;;;;41.22;3.53;;;4.70;99.90;;;;;;4734092;30;20060;-74
2023/01/26 08:37:02;;;;;;;28.58;4.85;;;4.80;99.90;;;;;;4734176;30;20052;-74
2023/01/26 08:39:28;;;;;;;35.80;5.45;;;4.80;99.90;;;;;;4734375;30;20063;-74
2023/01/26 08:41:54;;;;;;;33.13;5.75;;;4.90;99.90;;;;;;4734050;30;20053;-74
2023/01/26 08:44:20;;;;;;;35.30;3.90;;;4.80;99.90;;;;;;4734032;30;20079;-74
2023/01/26 08:46:45;;;;;;;27.27;4.10;;;5.00;99.90;;;;;;4734277;30;20166;-74
2023/01/26 08:49:11;;;;;;;22.67;3.47;;;5.10;99.90;;;;;;4734060;30;20080;-74
2023/01/26 08:51:37;;;;;;;38.60;4.50;;;5.20;99.90;;;;;;4733922;30;20375;-74
2023/01/26 08:54:12;;;;;;;35.83;4.05;;;5.30;99.90;;;;;;4733868;30;20045;-74
2023/01/26 08:56:37;;;;;;;21.90;2.97;;;5.40;99.90;;;;;;4734111;30;20491;-75
2023/01/26 08:59:03;;;;;;;29.17;4.35;;;5.50;99.90;;;;;;4733864;30;20056;-74
2023/01/26 09:01:28;;;;;;;35.80;4.88;;;5.70;99.90;;;;;;4733969;30;20055;-74
2023/01/26 09:03:55;;;;;;;29.52;5.03;;;5.80;99.90;;;;;;4733829;30;20140;-73
2023/01/26 09:06:21;;;;;;;29.23;3.50;;;5.80;99.90;;;;;;4734028;30;20052;-74
2023/01/26 09:08:46;;;;;;;34.13;4.13;;;5.90;99.90;;;;;;4734973;30;20060;-74
2023/01/26 09:11:12;;;;;;;37.25;5.82;;;5.80;99.90;;;;;;4733670;30;20422;-74
2023/01/26 09:13:38;;;;;;;34.95;4.22;;;5.90;99.90;;;;;;4733666;30;20049;-74
2023/01/26 09:16:16;;;;;;;49.13;5.18;;;6.00;99.90;;;;;;4733871;30;20056;-74
2023/01/26 09:18:42;;;;;;;39.20;4.50;;;6.00;99.90;;;;;;4733930;30;20060;-73
2023/01/26 09:21:08;;;;;;;35.35;5.07;;;6.00;99.90;;;;;;4733855;30;20520;-75
2023/01/26 09:23:35;;;;;;;36.25;3.92;;;6.00;99.90;;;;;;4733925;30;20136;-74
2023/01/26 09:26:01;;;;;;;29.42;4.95;;;6.10;99.90;;;;;;4733571;30;20063;-74
2023/01/26 09:28:36;;;;;;;40.33;6.40;;;6.10;99.90;;;;;;4733341;30;20072;-73
2023/01/26 09:31:07;;;;;;;27.50;4.10;;;6.20;99.90;;;;;;4737787;30;20052;-74
2023/01/26 09:33:33;;;;;;;30.45;3.97;;;6.10;99.90;;;;;;4755050;30;20048;-74
2023/01/26 09:36:07;;;;;;;34.60;4.15;;;6.30;99.90;;;;;;4754735;30;20062;-74
2023/01/26 09:38:33;;;;;;;22.92;2.63;;;6.40;99.90;;;;;;4754668;30;20052;-74
2023/01/26 09:41:14;;;;;;;36.90;4.88;;;6.40;99.90;;;;;;4754641;30;20086;-74
2023/01/26 09:43:53;;;;;;;42.15;4.20;;;6.50;99.90;;;;;;4754658;30;20048;-74
2023/01/26 09:46:34;;;;;;;27.50;3.85;;;6.40;99.90;;;;;;4754726;30;20090;-74
2023/01/26 09:49:15;;;;;;;30.92;3.90;;;6.40;99.90;;;;;;4754510;30;20060;-74
2023/01/26 09:51:57;;;;;;;25.52;3.38;;;6.50;99.90;;;;;;4754357;30;20082;-74
2023/01/26 09:54:31;;;;;;;25.67;3.92;;;6.50;99.90;;;;;;4754417;30;20131;-74
2023/01/26 09:57:00;;;;;;;24.85;2.92;;;6.50;99.90;;;;;;4754359;30;20503;-74
2023/01/26 09:59:35;;;;;;;31.45;3.53;;;6.40;99.90;;;;;;4754628;30;20060;-74
2023/01/26 10:02:12;;;;;;;24.33;2.65;;;6.50;99.90;;;;;;4754431;30;20052;-74
2023/01/26 10:04:41;;;;;;;26.98;3.25;;;6.40;99.90;;;;;;4754264;30;20458;-74
2023/01/26 10:07:12;;;;;;;40.80;7.03;;;6.40;99.90;;;;;;4754260;30;20052;-74
2023/01/26 10:09:40;;;;;;;32.50;3.90;;;6.50;99.90;;;;;;4754238;30;20091;-74
2023/01/26 10:12:17;;;;;;;24.73;2.95;;;6.80;99.90;;;;;;4754015;30;20060;-74
2023/01/26 10:14:51;;;;;;;25.63;3.10;;;7.00;99.90;;;;;;4754324;30;20056;-74
2023/01/26 10:17:40;;;;;;;34.30;5.00;;;7.00;99.90;;;;;;4753746;30;20462;-74
2023/01/26 10:20:21;;;;;;;40.17;3.17;;;7.00;99.90;;;;;;4754797;30;20421;-74
2023/01/26 10:22:51;;;;;;;24.83;3.38;;;7.20;99.90;;;;;;4754127;30;20058;-74
2023/01/26 10:25:19;;;;;;;21.77;2.83;;;7.20;99.90;;;;;;4754182;30;20063;-74
2023/01/26 10:27:45;;;;;;;19.42;4.57;;;7.20;99.90;;;;;;4753813;30;20075;-74
2023/01/26 10:30:16;;;;;;;19.55;3.17;;;7.30;99.90;;;;;;4753939;30;20545;-74
2023/01/26 10:32:44;;;;;;;27.55;3.13;;;7.20;99.90;;;;;;4753737;30;20063;-74
2023/01/26 10:35:20;;;;;;;23.42;2.78;;;7.20;99.90;;;;;;4753984;30;20132;-74
2023/01/26 10:37:45;;;;;;;32.95;4.13;;;7.20;99.90;;;;;;4755072;30;20143;-74
2023/01/26 10:40:11;;;;;;;33.85;3.60;;;7.30;99.90;;;;;;4753626;30;20139;-74
2023/01/26 10:42:39;;;;;;;20.15;2.58;;;7.20;99.90;;;;;;4753068;30;20056;-74
2023/01/26 10:45:25;;;;;;;26.50;3.15;;;7.20;99.90;;;;;;4753772;30;20040;-74
2023/01/26 10:48:05;;;;;;;25.88;4.63;;;7.30;99.90;;;;;;4753257;30;20064;-74
2023/01/26 10:50:31;;;;;;;24.50;4.22;;;7.30;99.90;;;;;;4753622;30;20083;-74
2023/01/26 10:52:59;;;;;;;30.13;3.33;;;7.30;99.90;;;;;;4753392;30;20109;-73
2023/01/26 10:55:26;;;;;;;23.98;4.18;;;7.30;99.90;;;;;;4753358;30;20482;-74
2023/01/26 10:57:51;;;;;;;17.02;4.07;;;7.30;99.90;;;;;;4753320;30;20413;-74
2023/01/26 11:00:25;;;;;;;22.90;3.38;;;7.40;99.90;;;;;;4753284;30;20521;-73
2023/01/26 11:02:54;;;;;;;23.35;2.67;;;7.50;99.90;;;;;;4753357;30;20048;-74
2023/01/26 11:05:23;;;;;;;23.25;3.22;;;7.70;99.90;;;;;;4753426;30;20056;-73
2023/01/26 11:07:57;;;;;;;24.83;3.60;;;7.80;99.90;;;;;;4753161;30;20052;-74
2023/01/26 11:10:32;;;;;;;23.55;3.03;;;7.90;99.90;;;;;;4753124;30;20052;-74
2023/01/26 11:13:11;;;;;;;15.77;2.25;;;7.80;99.90;;;;;;4753369;30;20049;-74
2023/01/26 11:15:40;;;;;;;15.93;3.63;;;7.90;99.90;;;;;;4752985;30;20087;-74
2023/01/26 11:18:28;;;;;;;23.58;2.83;;;8.00;99.90;;;;;;4753083;30;20107;-74
2023/01/26 11:21:00;;;;;;;20.27;2.47;;;8.00;99.90;;;;;;4743669;30;20534;-74
2023/01/26 11:23:53;;;;;;;25.60;4.15;;;7.90;99.90;;;;;;4752820;30;20044;-74
2023/01/26 11:26:47;;;;;;;24.20;2.60;;;8.00;99.90;;;;;;4752915;30;20063;-74
2023/01/26 11:29:16;;;;;;;26.20;3.45;;;8.00;99.90;;;;;;4752826;30;20060;-73
2023/01/26 11:32:09;;;;;;;21.60;2.67;;;7.90;99.90;;;;;;4752762;30;20052;-74
2023/01/26 11:34:56;;;;;;;22.55;2.45;;;8.00;99.90;;;;;;4752952;30;20096;-73
2023/01/26 11:37:47;;;;;;;29.63;2.70;;;8.00;99.90;;;;;;4753154;30;20536;-74
2023/01/26 11:40:53;;;;;;;16.83;2.55;;;8.00;99.90;;;;;;4752835;30;20048;-74
2023/01/26 11:43:38;;;;;;;16.33;2.70;;;8.00;99.90;;;;;;4752678;30;20064;-74
2023/01/26 11:46:10;;;;;;;14.15;1.48;;;8.00;99.90;;;;;;4752494;30;20052;-73
2023/01/26 11:49:01;;;;;;;24.25;3.38;;;7.90;99.90;;;;;;4752561;30;20058;-73
2023/01/26 11:51:35;;;;;;;19.98;2.10;;;7.80;99.90;;;;;;4752505;30;20056;-73
2023/01/26 11:54:14;;;;;;;19.17;2.47;;;7.90;99.90;;;;;;4752086;30;20527;-73
2023/01/26 11:56:48;;;;;;;23.15;2.10;;;7.80;99.90;;;;;;4752266;30;20055;-73
2023/01/26 11:59:28;;;;;;;17.48;3.40;;;7.80;99.90;;;;;;4752679;30;20125;-73
2023/01/26 12:02:03;;;;;;;;;;;7.70;99.90;;;;;;4752724;30;20056;-74
2023/01/26 12:04:33;;;;;;;21.35;2.22;;;7.80;99.90;;;;;;4752263;30;19937;-73
2023/01/26 12:07:05;;;;;;;25.25;2.42;;;7.80;99.90;;;;;;4752105;30;20109;-73
2023/01/26 12:09:37;;;;;;;16.38;2.67;;;7.80;99.90;;;;;;4752244;30;20063;-74
2023/01/26 12:12:26;;;;;;;22.35;3.58;;;7.80;99.90;;;;;;4752058;30;20095;-74
2023/01/26 12:15:14;;;;;;;26.50;2.80;;;7.80;99.90;;;;;;4740013;30;20151;-73
2023/01/26 12:18:04;;;;;;;25.13;3.85;;;7.90;99.90;;;;;;4752249;30;20059;-74
2023/01/26 12:20:41;;;;;;;14.95;2.97;;;8.00;99.90;;;;;;4752275;30;20067;-74
2023/01/26 12:23:32;;;;;;;17.92;2.45;;;7.90;99.90;;;;;;4752168;30;20135;-73
2023/01/26 12:26:04;;;;;;;15.20;2.38;;;8.00;99.90;;;;;;4752181;30;20064;-74
2023/01/26 12:28:36;;;;;;;19.48;2.35;;;8.00;99.90;;;;;;4751755;30;20145;-74
2023/01/26 12:31:27;;;;;;;18.50;2.50;;;8.00;99.90;;;;;;4752030;30;20607;-73
2023/01/26 12:33:55;;;;;;;20.15;2.85;;;8.10;99.90;;;;;;4752997;30;20623;-73
2023/01/26 12:36:21;;;;;;;21.50;2.10;;;8.10;99.90;;;;;;4752969;30;20092;-74
2023/01/26 12:39:09;;;;;;;13.25;1.98;;;8.10;99.90;;;;;;4751853;30;20094;-74
2023/01/26 12:41:59;;;;;;;17.73;2.67;;;8.10;99.90;;;;;;4751956;30;20161;-73
2023/01/26 12:45:04;;;;;;;19.02;1.80;;;8.10;99.90;;;;;;4751887;30;20064;-74
2023/01/26 12:47:42;;;;;;;18.00;2.58;;;8.00;99.90;;;;;;4713162;30;20067;-74
2023/01/26 12:50:42;;;;;;;22.70;2.05;;;8.00;99.90;;;;;;4751748;30;20073;-74
2023/01/26 12:53:31;;;;;;;11.75;1.98;;;8.00;99.90;;;;;;4751448;30;20056;-74
2023/01/26 12:56:23;;;;;;;19.23;2.88;;;8.00;99.90;;;;;;4751779;30;20421;-74
2023/01/26 12:58:51;;;;;;;19.02;2.95;;;7.90;99.90;;;;;;4751465;30;20048;-74
2023/01/26 13:01:19;;;;;;;21.58;3.70;;;7.80;99.90;;;;;;4751540;30;20052;-74
2023/01/26 13:03:58;;;;;;;33.83;4.10;;;7.90;99.90;;;;;;4751359;30;20421;-74
2023/01/26 13:06:28;;;;;;;17.27;2.45;;;7.90;99.90;;;;;;4751621;30;20401;-74
2023/01/26 13:08:56;;;;;;;21.50;2.40;;;7.80;99.90;;;;;;4751330;30;20110;-74
2023/01/26 13:12:00;;;;;;;19.30;2.50;;;7.80;99.90;;;;;;4751460;30;20079;-74
2023/01/26 13:14:56;;;;;;;25.42;3.17;;;7.70;99.90;;;;;;4751552;30;20135;-74
2023/01/26 13:17:22;;;;;;;21.77;4.57;;;7.80;99.90;;;;;;4751478;30;20052;-74
2023/01/26 13:19:53;;;;;;;16.23;2.13;;;7.80;99.90;;;;;;4751491;30;20075;-74
2023/01/26 13:22:22;;;;;;;15.98;2.10;;;7.70;99.90;;;;;;4751165;30;20055;-73
2023/01/26 13:25:17;;;;;;;11.07;2.05;;;7.70;99.90;;;;;;4751144;30;20453;-73
2023/01/26 13:27:59;;;;;;;18.33;2.42;;;7.70;99.90;;;;;;4751215;30;20071;-73
2023/01/26 13:30:25;;;;;;;28.88;2.67;;;7.60;99.90;;;;;;4751023;30;20087;-74
2023/01/26 13:33:09;;;;;;;13.73;2.30;;;7.60;99.90;;;;;;4751389;30;20064;-74
2023/01/26 13:35:35;;;;;;;22.23;3.10;;;7.60;99.90;;;;;;4751290;30;20067;-73
2023/01/26 13:38:15;;;;;;;14.98;1.63;;;7.60;99.90;;;;;;4751318;30;20464;-74
2023/01/26 13:40:45;;;;;;;21.83;2.40;;;7.60;99.90;;;;;;4751359;30;20084;-74
2023/01/26 13:43:23;;;;;;;24.92;3.08;;;7.60;99.90;;;;;;4751071;30;20048;-73
2023/01/26 13:46:11;;;;;;;33.78;4.15;;;7.60;99.90;;;;;;4751079;30;20056;-74